Latina, Latina Air Base (LIRL)

NameLatina Air Base
CityLatina
CountryItaly
ICAOLIRL
IATAQLT
Altitude28 m
CoordinatesGoogle Map
Live Air TrafficLiveATC.net
METARLIRL 161255Z 17003KT 9999 SCT025 SCT040 14/06 Q1023 RMK BKN MON LIB NC VIS MIN 9999 WIND THR12 17003KT WIND THR30 19003KT BLU
2019-01-16 12:55:00 Wind: South-Southeast (170°) 1.54 m/s - Visibility: > 10000 m - Temperature: 14 °C - Dew point: 6 °C - Humidity: 58.8% - Pressure: 1023 hPa
Statistics

The table below shows the detailed information of all flights to/from Latina, Latina Air Base (LIRL).